Time;durP1;ratioP1;P1;durP2;ratioP2;P2;SDS_P1;SDS_P2;PMS_P1;PMS_P2;Temp;Humidity;BMP_temperature;BMP_pressure;BME280_temperature;BME280_humidity;BME280_pressure;Samples;Min_cycle;Max_cycle;Signal;HPM_P1;HPM_P2
2021/09/15 00:00:57;;;;;;;21.08;10.30;;;;;;;10.70;76.06;101790.16;4916546;29;20027;-53
2021/09/15 00:03:22;;;;;;;17.95;10.68;;;;;;;10.54;76.90;101785.38;4922014;29;20024;-53
2021/09/15 00:05:48;;;;;;;20.80;10.85;;;;;;;10.57;76.79;101783.06;4934443;23;20114;-47
2021/09/15 00:08:13;;;;;;;18.35;10.73;;;;;;;10.58;77.53;101781.22;4929395;29;20111;-48
2021/09/15 00:10:40;;;;;;;18.85;11.13;;;;;;;10.59;77.72;101781.00;4943171;29;20105;-46
2021/09/15 00:13:06;;;;;;;20.05;10.43;;;;;;;10.61;77.78;101780.78;4935055;29;20319;-48
2021/09/15 00:15:32;;;;;;;17.90;10.77;;;;;;;10.62;77.64;101781.59;4941124;29;20030;-46
2021/09/15 00:17:57;;;;;;;21.67;11.00;;;;;;;10.57;77.69;101769.66;4937085;29;20035;-46
2021/09/15 00:20:23;;;;;;;17.73;10.20;;;;;;;10.59;77.56;101772.97;4939555;29;20454;-47
2021/09/15 00:22:48;;;;;;;15.55;9.85;;;;;;;10.54;77.67;101774.66;4942846;29;20027;-46
2021/09/15 00:25:14;;;;;;;17.15;9.85;;;;;;;10.46;77.82;101772.28;4935286;29;20027;-47
2021/09/15 00:27:39;;;;;;;20.23;10.13;;;;;;;10.44;77.58;101764.47;4943748;29;20039;-46
2021/09/15 00:30:05;;;;;;;17.85;10.30;;;;;;;10.39;77.95;101763.47;4939719;29;20099;-48
2021/09/15 00:32:31;;;;;;;17.33;9.63;;;;;;;10.37;77.99;101758.34;4939053;29;20588;-47
2021/09/15 00:34:56;;;;;;;15.57;9.13;;;;;;;10.34;77.87;101753.44;4940666;29;20115;-46
2021/09/15 00:37:22;;;;;;;14.90;8.93;;;;;;;10.32;77.89;101758.19;4941617;29;20559;-46
2021/09/15 00:39:47;;;;;;;15.52;8.63;;;;;;;10.22;78.30;101755.19;4933929;28;20438;-46
2021/09/15 00:42:12;;;;;;;20.85;11.50;;;;;;;10.10;80.08;101756.94;4942181;29;20276;-47
2021/09/15 00:44:38;;;;;;;23.05;13.02;;;;;;;10.00;81.49;101752.09;4925997;29;20031;-46
2021/09/15 00:47:03;;;;;;;21.88;11.70;;;;;;;10.13;80.58;101753.81;4936309;29;20023;-49
2021/09/15 00:49:29;;;;;;;19.13;10.98;;;;;;;10.15;80.81;101754.44;4937361;29;20030;-49
2021/09/15 00:51:54;;;;;;;24.65;12.57;;;;;;;10.20;80.63;101757.25;4937578;29;20027;-47
2021/09/15 00:54:20;;;;;;;20.17;11.43;;;;;;;10.12;83.88;101757.53;4935215;28;20118;-47
2021/09/15 00:56:45;;;;;;;22.02;11.35;;;;;;;10.16;83.16;101756.06;4936028;29;20035;-47
2021/09/15 00:59:11;;;;;;;19.77;11.18;;;;;;;10.25;82.08;101754.78;4938079;29;20214;-46
2021/09/15 01:01:37;;;;;;;20.70;11.00;;;;;;;10.27;82.30;101755.38;4941576;29;20613;-46
2021/09/15 01:04:03;;;;;;;19.77;10.43;;;;;;;10.32;81.90;101752.03;4934463;29;20027;-47
2021/09/15 01:06:33;;;;;;;18.77;10.60;;;;;;;10.33;81.92;101756.34;4936919;29;20039;-46
2021/09/15 01:09:00;;;;;;;19.23;9.73;;;;;;;10.32;81.32;101744.81;4937548;29;20164;-46
2021/09/15 01:11:28;;;;;;;23.88;10.48;;;;;;;10.32;81.01;101747.50;4941734;29;20107;-46
2021/09/15 01:13:54;;;;;;;19.25;10.23;;;;;;;10.27;81.09;101747.34;4936139;29;20102;-46
2021/09/15 01:16:20;;;;;;;17.25;10.80;;;;;;;10.27;80.88;101742.81;4941338;29;20035;-46
2021/09/15 01:18:47;;;;;;;14.68;9.90;;;;;;;10.27;80.98;101741.97;4938919;29;20039;-47
2021/09/15 01:21:12;;;;;;;22.80;11.90;;;;;;;10.21;81.21;101734.81;4938016;29;20042;-46
2021/09/15 01:23:38;;;;;;;22.05;12.18;;;;;;;10.16;81.68;101740.00;4938861;29;20379;-48
2021/09/15 01:26:04;;;;;;;20.58;10.38;;;;;;;10.18;81.69;101744.09;4939863;28;20362;-47
2021/09/15 01:28:30;;;;;;;17.88;11.00;;;;;;;10.22;81.67;101739.13;4937185;28;20038;-46
2021/09/15 01:30:56;;;;;;;20.45;10.88;;;;;;;10.23;81.29;101735.41;4939045;29;20047;-46
2021/09/15 01:33:23;;;;;;;19.45;10.27;;;;;;;10.22;81.36;101728.41;4940568;29;20051;-46
2021/09/15 01:35:48;;;;;;;17.98;10.13;;;;;;;10.23;81.24;101730.06;4937143;28;20027;-46
2021/09/15 01:38:15;;;;;;;18.58;10.63;;;;;;;10.15;81.22;101719.59;4937478;29;20481;-46
2021/09/15 01:40:41;;;;;;;17.65;10.43;;;;;;;10.05;81.51;101714.75;4935955;29;20031;-46
2021/09/15 01:43:07;;;;;;;15.23;9.88;;;;;;;10.06;81.35;101723.63;4936688;29;20043;-47
2021/09/15 01:45:33;;;;;;;23.50;11.63;;;;;;;9.84;85.26;101720.50;4938487;29;20027;-47
2021/09/15 01:47:59;;;;;;;24.90;13.35;;;;;;;9.75;86.78;101714.63;4939548;29;20417;-47
2021/09/15 01:50:24;;;;;;;20.77;11.50;;;;;;;9.85;85.32;101719.47;4936020;29;20199;-47
2021/09/15 01:52:50;;;;;;;21.77;11.02;;;;;;;9.91;84.51;101711.41;4938516;29;20446;-47
2021/09/15 01:55:33;;;;;;;16.35;9.32;;;;;;;9.84;84.18;101710.63;4938206;28;20022;-47
2021/09/15 01:57:59;;;;;;;21.17;10.35;;;;;;;9.90;83.84;101717.78;4939128;29;20035;-47
2021/09/15 02:00:24;;;;;;;15.82;10.02;;;;;;;9.97;83.27;101715.88;4938200;29;20035;-47
2021/09/15 02:02:51;;;;;;;19.23;11.32;;;;;;;9.91;83.14;101714.06;4936978;29;20131;-50
2021/09/15 02:05:17;;;;;;;22.52;11.88;;;;;;;9.91;83.02;101722.09;4942847;29;20042;-47
2021/09/15 02:07:43;;;;;;;19.80;11.70;;;;;;;9.70;89.03;101714.47;4943353;28;20042;-47
2021/09/15 02:10:10;;;;;;;20.02;10.93;;;;;;;9.78;87.01;101716.03;4937005;29;20035;-46
2021/09/15 02:12:35;;;;;;;22.85;12.63;;;;;;;9.79;88.80;101718.50;4923477;29;20039;-46
2021/09/15 02:15:01;;;;;;;20.92;11.82;;;;;;;9.88;87.58;101711.84;4939160;28;20028;-47
2021/09/15 02:17:29;;;;;;;24.88;12.35;;;;;;;9.94;86.68;101710.94;4937748;29;20031;-46
2021/09/15 02:19:54;;;;;;;16.13;9.57;;;;;;;9.96;85.95;101713.41;4936582;29;20027;-46
2021/09/15 02:22:20;;;;;;;16.40;10.02;;;;;;;9.99;85.04;101708.44;4936712;28;20458;-46
2021/09/15 02:24:45;;;;;;;17.30;10.25;;;;;;;9.87;85.13;101707.50;4938750;28;20027;-47
2021/09/15 02:27:11;;;;;;;25.75;13.50;;;;;;;9.85;86.01;101712.25;4932022;29;20124;-47
2021/09/15 02:29:36;;;;;;;19.83;11.27;;;;;;;9.93;85.01;101709.31;4937242;29;20031;-47
2021/09/15 02:32:02;;;;;;;20.13;11.77;;;;;;;9.95;85.27;101711.78;4935937;29;20027;-46
2021/09/15 02:34:27;;;;;;;20.85;11.45;;;;;;;9.78;87.77;101711.50;4935397;29;20035;-47
2021/09/15 02:36:53;;;;;;;21.98;11.05;;;;;;;9.91;86.18;101699.88;4940160;28;20042;-46
2021/09/15 02:39:18;;;;;;;20.42;11.05;;;;;;;9.95;85.77;101695.72;4936682;29;20454;-47
2021/09/15 02:41:44;;;;;;;19.65;10.57;;;;;;;9.93;nan;101693.25;4937505;29;20027;-47
2021/09/15 02:44:09;;;;;;;18.70;10.00;;;;;;;9.92;85.06;101685.44;4937633;29;20351;-47
2021/09/15 02:46:34;;;;;;;15.07;9.02;;;;;;;9.91;84.38;101679.28;4938513;28;20023;-46
2021/09/15 02:49:00;;;;;;;16.60;10.13;;;;;;;9.89;83.58;101686.72;4937120;29;20482;-46
2021/09/15 02:51:26;;;;;;;18.58;10.90;;;;;;;9.79;84.20;101685.56;4935831;29;20038;-48
2021/09/15 02:53:52;;;;;;;21.30;11.95;;;;;;;9.59;86.29;101681.19;4936933;29;20039;-46
2021/09/15 02:56:17;;;;;;;21.08;11.63;;;;;;;9.66;85.55;101681.13;4934590;29;20628;-46
2021/09/15 02:58:43;;;;;;;18.98;11.60;;;;;;;9.61;86.62;101679.13;4925378;29;20509;-46
2021/09/15 03:01:09;;;;;;;22.25;11.57;;;;;;;9.67;86.11;101682.78;4934411;29;20039;-47
2021/09/15 03:03:34;;;;;;;22.60;12.88;;;;;;;9.67;86.87;101674.75;4934722;29;20177;-48
2021/09/15 03:06:00;;;;;;;24.17;12.35;;;;;;;9.74;86.26;101680.06;4935059;29;21548;-45
2021/09/15 03:08:25;;;;;;;17.42;10.60;;;;;;;9.78;85.84;101674.03;4940318;29;20034;-47
2021/09/15 03:10:51;;;;;;;20.00;11.77;;;;;;;9.76;85.91;101675.31;4936545;29;20027;-47
2021/09/15 03:13:16;;;;;;;21.65;12.07;;;;;;;9.66;87.74;101671.25;4936633;29;20114;-46
2021/09/15 03:15:42;;;;;;;19.42;10.60;;;;;;;9.75;86.60;101669.13;4934266;29;20471;-47
2021/09/15 03:18:07;;;;;;;18.42;10.02;;;;;;;9.77;85.95;101667.06;4933585;28;20313;-47
2021/09/15 03:20:33;;;;;;;19.27;10.38;;;;;;;9.79;85.58;101670.31;4942178;29;20054;-47
2021/09/15 03:22:59;;;;;;;17.23;10.48;;;;;;;9.80;85.34;101666.59;4925604;29;20031;-46
2021/09/15 03:25:25;;;;;;;16.75;9.60;;;;;;;9.85;84.76;101657.91;4942416;29;20031;-48
2021/09/15 03:27:50;;;;;;;12.07;8.73;;;;;;;9.82;84.53;101653.81;4938614;29;20035;-46
2021/09/15 03:30:16;;;;;;;15.98;8.75;;;;;;;9.78;84.32;101641.09;4940419;29;20624;-46
2021/09/15 03:32:41;;;;;;;19.58;9.77;;;;;;;9.77;84.04;101639.47;4943859;29;20034;-47
2021/09/15 03:35:07;;;;;;;17.77;10.25;;;;;;;9.74;84.85;101640.72;4940430;29;20037;-47
2021/09/15 03:37:33;;;;;;;23.63;12.45;;;;;;;9.76;84.77;101645.88;4941401;29;20027;-47
2021/09/15 03:39:58;;;;;;;24.38;13.68;;;;;;;9.58;90.61;101647.47;4936697;29;20027;-46
2021/09/15 03:42:24;;;;;;;21.77;12.30;;;;;;;9.69;89.67;101643.22;4938764;29;20023;-47
2021/09/15 03:44:49;;;;;;;28.05;14.40;;;;;;;9.74;89.81;101638.06;4941018;28;20498;-47
2021/09/15 03:47:15;;;;;;;19.73;12.68;;;;;;;9.87;87.50;101637.91;4938100;29;20115;-47
2021/09/15 03:49:40;;;;;;;19.05;11.30;;;;;;;9.94;86.91;101625.28;4918546;29;20561;-46
2021/09/15 03:52:06;;;;;;;20.30;10.95;;;;;;;9.97;86.54;101624.84;4938877;29;20028;-46
2021/09/15 03:54:32;;;;;;;18.67;9.98;;;;;;;10.00;86.14;101624.38;4938172;29;20031;-46
2021/09/15 03:56:57;;;;;;;14.48;8.82;;;;;;;9.99;85.66;101617.41;4942146;28;20295;-47
2021/09/15 03:59:23;;;;;;;20.13;11.60;;;;;;;9.96;85.35;101620.53;4940317;29;20035;-46
2021/09/15 04:01:48;;;;;;;18.70;10.90;;;;;;;9.99;85.63;101628.09;4941616;29;20624;-46
2021/09/15 04:04:13;;;;;;;21.27;11.00;;;;;;;10.07;85.15;101626.19;4936036;29;20194;-46
2021/09/15 04:06:39;;;;;;;20.00;11.50;;;;;;;10.00;87.15;101613.69;4945083;28;20035;-45
2021/09/15 04:09:05;;;;;;;19.50;11.05;;;;;;;10.09;86.19;101608.03;4934130;28;20042;-46
2021/09/15 04:11:30;;;;;;;22.95;9.98;;;;;;;10.10;85.88;101607.81;4939227;29;20023;-46
2021/09/15 04:13:56;;;;;;;15.95;9.68;;;;;;;10.10;85.33;101612.34;4935987;28;20482;-46
2021/09/15 04:16:21;;;;;;;23.00;12.15;;;;;;;10.10;85.51;101605.13;4945882;29;20248;-46
2021/09/15 04:18:47;;;;;;;28.42;15.65;;;;;;;10.12;85.70;101615.63;4938731;28;20031;-46
2021/09/15 04:21:12;;;;;;;22.85;12.55;;;;;;;10.19;85.88;101611.00;4938899;29;20030;-46
2021/09/15 04:31:37;;;;;;;25.08;14.10;;;;;;;10.21;87.29;101608.94;4936457;29;20046;-47
2021/09/15 04:34:03;;;;;;;25.42;14.43;;;;;;;10.20;89.06;101604.59;4938968;29;20043;-47
2021/09/15 04:36:28;;;;;;;19.50;11.68;;;;;;;10.33;87.51;101596.44;4943731;28;20240;-46
2021/09/15 04:38:54;;;;;;;18.13;11.30;;;;;;;10.40;87.21;101596.34;4938368;29;20115;-46
2021/09/15 04:41:20;;;;;;;27.80;13.23;;;;;;;10.45;86.84;101591.97;4937819;29;20031;-47
2021/09/15 04:43:46;;;;;;;18.45;11.23;;;;;;;10.51;86.56;101599.09;4934085;29;20075;-46
2021/09/15 04:46:11;;;;;;;21.00;11.27;;;;;;;10.54;86.45;101600.50;4932544;29;20451;-47
2021/09/15 04:48:38;;;;;;;18.98;10.77;;;;;;;10.64;86.12;101597.28;4934944;29;20283;-46
2021/09/15 04:51:05;;;;;;;21.42;11.27;;;;;;;10.66;86.23;101596.00;4937051;29;20024;-47
2021/09/15 04:53:30;;;;;;;19.80;11.30;;;;;;;10.72;85.70;101592.41;4935614;29;20032;-46
2021/09/15 04:55:56;;;;;;;19.95;11.07;;;;;;;10.79;85.87;101589.66;4925854;29;20035;-47
2021/09/15 04:58:22;;;;;;;20.23;11.43;;;;;;;10.84;85.60;101593.25;4933174;29;20023;-46
2021/09/15 05:00:47;;;;;;;16.80;11.10;;;;;;;10.88;85.53;101591.75;4938807;29;20042;-47
2021/09/15 05:03:13;;;;;;;17.02;10.30;;;;;;;10.96;85.34;101579.91;4933708;29;20055;-47
2021/09/15 05:05:38;;;;;;;17.67;10.57;;;;;;;11.03;85.05;101585.97;4936945;28;20080;-47
2021/09/15 05:08:04;;;;;;;18.35;10.40;;;;;;;11.09;84.76;101579.66;4940969;29;20031;-46
2021/09/15 05:10:29;;;;;;;18.70;10.32;;;;;;;11.11;84.72;101592.84;4939306;28;20110;-47
2021/09/15 05:12:57;;;;;;;22.05;12.80;;;;;;;11.03;86.51;101585.16;4935786;29;20035;-46
2021/09/15 05:15:24;;;;;;;26.00;14.70;;;;;;;10.96;89.63;101590.63;4934342;29;20032;-47
2021/09/15 05:17:51;;;;;;;25.30;15.55;;;;;;;10.96;90.75;101585.25;4935342;29;20035;-47
2021/09/15 05:20:18;;;;;;;27.77;16.52;;;;;;;10.87;94.01;101591.97;4937657;29;20032;-46
2021/09/15 05:22:47;;;;;;;34.03;18.38;;;;;;;10.85;95.81;101594.06;4937298;29;20034;-46
2021/09/15 05:25:13;;;;;;;27.33;15.38;;;;;;;10.87;95.53;101590.13;4932802;29;20409;-47
2021/09/15 05:27:39;;;;;;;28.10;15.20;;;;;;;10.93;95.27;101593.72;4934038;29;20521;-47
2021/09/15 05:30:05;;;;;;;28.83;14.38;;;;;;;10.96;95.41;101595.97;4933749;29;20118;-46
2021/09/15 05:32:30;;;;;;;29.35;15.23;;;;;;;10.91;96.13;101598.50;4932455;29;20152;-47
2021/09/15 05:34:56;;;;;;;27.70;14.52;;;;;;;11.02;95.58;101596.91;4933037;28;20126;-47
2021/09/15 05:37:21;;;;;;;27.80;12.75;;;;;;;11.26;93.65;101600.44;4935422;28;20035;-46
2021/09/15 05:39:47;;;;;;;22.52;12.68;;;;;;;11.43;92.28;101593.34;4931569;28;20551;-46
2021/09/15 05:42:12;;;;;;;25.13;12.48;;;;;;;11.55;91.29;101591.50;4941229;28;20318;-46
2021/09/15 05:44:38;;;;;;;20.10;11.30;;;;;;;11.68;90.46;101583.19;4938536;28;20062;-45
2021/09/15 05:47:04;;;;;;;17.48;10.80;;;;;;;11.81;89.38;101582.16;4938527;28;20047;-46
2021/09/15 05:49:29;;;;;;;17.60;11.10;;;;;;;11.94;88.84;101581.09;4934095;28;20027;-47
2021/09/15 05:51:54;;;;;;;15.43;11.40;;;;;;;12.07;88.22;101581.66;4935312;28;20109;-46
2021/09/15 05:54:20;;;;;;;20.25;11.77;;;;;;;12.21;87.62;101582.19;4937599;29;20046;-47
2021/09/15 05:56:45;;;;;;;20.30;12.15;;;;;;;12.33;87.08;101579.47;4925944;28;20050;-46
2021/09/15 05:59:11;;;;;;;19.35;12.07;;;;;;;12.46;86.63;101578.38;4933732;29;20038;-46
2021/09/15 06:01:36;;;;;;;23.10;12.50;;;;;;;12.57;86.14;101575.63;4937861;29;20035;-46
2021/09/15 06:04:02;;;;;;;21.35;11.95;;;;;;;12.70;85.88;101571.81;4939653;28;20031;-47
2021/09/15 06:06:28;;;;;;;20.58;12.00;;;;;;;12.83;85.43;101565.31;4939677;23;20178;-56
2021/09/15 06:08:53;;;;;;;29.92;15.10;;;;;;;12.88;86.28;101555.44;4930887;28;20039;-57
2021/09/15 06:11:19;;;;;;;23.50;14.65;;;;;;;12.99;85.96;101564.53;4932025;29;20031;-55
2021/09/15 06:13:45;;;;;;;25.17;13.13;;;;;;;13.09;85.52;101561.16;4932665;29;20028;-56
2021/09/15 06:16:11;;;;;;;27.05;13.07;;;;;;;13.15;85.43;101560.19;4932242;29;20047;-56
2021/09/15 06:18:36;;;;;;;18.23;11.98;;;;;;;13.25;84.88;101555.00;4929351;28;20032;-56
2021/09/15 06:21:02;;;;;;;23.60;13.77;;;;;;;13.34;84.35;101553.53;4930448;29;20038;-54
2021/09/15 06:23:30;;;;;;;25.38;13.05;;;;;;;13.44;84.37;101555.53;4931557;29;20069;-56
2021/09/15 06:25:56;;;;;;;19.25;12.90;;;;;;;13.53;84.12;101552.19;4921485;29;20039;-56
2021/09/15 06:28:21;;;;;;;18.98;12.07;;;;;;;13.64;83.62;101546.94;4929648;29;20157;-54
2021/09/15 06:30:48;;;;;;;19.83;13.30;;;;;;;13.71;83.79;101547.59;4931148;29;20043;-55
2021/09/15 06:33:14;;;;;;;20.70;13.45;;;;;;;13.82;83.21;101541.25;4931332;29;20482;-57
2021/09/15 06:35:40;;;;;;;22.40;13.38;;;;;;;13.93;83.09;101534.94;4928652;29;20043;-56
2021/09/15 06:38:06;;;;;;;22.13;14.13;;;;;;;14.05;82.95;101538.31;4932099;28;20485;-55
2021/09/15 06:40:32;;;;;;;21.88;12.38;;;;;;;14.12;83.10;101540.81;4934621;28;20062;-55
2021/09/15 06:42:58;;;;;;;29.48;14.63;;;;;;;14.08;85.14;101537.81;4920238;29;20023;-56
2021/09/15 06:45:23;;;;;;;21.52;12.75;;;;;;;14.29;83.66;101524.56;4938422;29;20462;-56
2021/09/15 06:47:49;;;;;;;20.80;13.05;;;;;;;14.48;83.27;101528.56;4933388;29;20054;-54
2021/09/15 06:50:14;;;;;;;25.63;13.77;;;;;;;14.66;83.20;101522.78;4934651;29;20059;-56
2021/09/15 06:52:40;;;;;;;23.92;14.10;;;;;;;14.81;82.60;101517.53;4935663;29;20047;-56
2021/09/15 06:55:07;;;;;;;28.77;15.02;;;;;;;14.96;82.33;101516.84;4937154;28;20039;-54
2021/09/15 06:57:32;;;;;;;26.67;14.73;;;;;;;15.14;81.61;101525.59;4927981;29;20046;-56
2021/09/15 06:59:58;;;;;;;24.05;13.98;;;;;;;15.31;81.12;101531.66;4937412;28;20027;-56
2021/09/15 07:02:25;;;;;;;23.25;14.30;;;;;;;15.47;80.60;101535.28;4940510;28;20558;-56
2021/09/15 07:04:51;;;;;;;29.30;15.82;;;;;;;15.57;79.87;101538.00;4935716;29;20394;-56
2021/09/15 07:07:16;;;;;;;27.58;14.80;;;;;;;15.74;79.23;101533.28;4937177;29;20032;-56
2021/09/15 07:09:41;;;;;;;24.77;14.85;;;;;;;15.91;78.49;101541.19;4933992;29;20042;-56
2021/09/15 07:12:07;;;;;;;27.92;14.60;;;;;;;16.00;78.09;101535.00;4936354;29;20027;-55
2021/09/15 07:14:33;;;;;;;26.33;16.13;;;;;;;16.06;77.68;101540.44;4934845;29;20067;-56
2021/09/15 07:16:58;;;;;;;26.30;16.13;;;;;;;16.15;77.48;101536.13;4935849;29;20050;-56
2021/09/15 07:19:23;;;;;;;24.17;15.07;;;;;;;16.18;77.32;101532.91;4937861;28;20122;-56
2021/09/15 07:21:49;;;;;;;24.58;15.30;;;;;;;16.23;76.79;101532.91;4932721;28;20031;-55
2021/09/15 07:24:15;;;;;;;26.02;16.05;;;;;;;16.27;76.48;101537.50;4938697;28;20035;-55
2021/09/15 07:26:40;;;;;;;30.95;16.40;;;;;;;16.30;76.34;101531.56;4920826;28;20042;-56
2021/09/15 07:29:05;;;;;;;24.55;16.90;;;;;;;16.41;76.55;101526.19;4931630;28;20058;-54
2021/09/15 07:31:36;;;;;;;31.88;15.98;;;;;;;16.46;75.96;101528.91;4931953;29;20036;-56
2021/09/15 07:34:01;;;;;;;30.67;16.63;;;;;;;16.40;76.19;101529.97;4931754;29;20067;-55
2021/09/15 07:36:27;;;;;;;27.30;16.25;;;;;;;16.55;75.74;101525.41;4933524;29;20434;-55
2021/09/15 07:38:52;;;;;;;28.05;14.65;;;;;;;16.66;75.05;101530.81;4922751;29;20039;-54
2021/09/15 07:41:18;;;;;;;24.50;14.57;;;;;;;16.77;74.73;101529.78;4912689;29;20167;-56
2021/09/15 07:43:43;;;;;;;22.00;14.23;;;;;;;16.95;74.14;101533.84;4931147;29;20418;-54
2021/09/15 07:46:09;;;;;;;23.52;14.77;;;;;;;16.99;74.17;101530.31;4935300;29;20040;-54
2021/09/15 07:48:34;;;;;;;20.10;13.32;;;;;;;17.08;73.47;101519.75;4930886;29;20162;-56
2021/09/15 07:51:00;;;;;;;22.25;14.15;;;;;;;17.24;72.66;101528.69;4930616;29;20031;-55
2021/09/15 07:53:25;;;;;;;20.42;13.30;;;;;;;17.50;71.68;101531.03;4931421;29;20437;-55
2021/09/15 07:55:51;;;;;;;17.65;12.93;;;;;;;17.69;71.20;101523.16;4931214;29;20051;-54
2021/09/15 07:58:16;;;;;;;21.52;13.57;;;;;;;17.93;70.73;101517.91;4930807;29;20559;-56
2021/09/15 08:00:42;;;;;;;17.63;12.45;;;;;;;18.10;69.94;101520.25;4922312;29;20191;-56
2021/09/15 08:03:07;;;;;;;25.17;12.63;;;;;;;18.30;69.39;101527.47;4932071;29;20106;-54
2021/09/15 08:05:33;;;;;;;16.95;13.10;;;;;;;18.42;69.00;101526.03;4930029;29;20081;-56
2021/09/15 08:08:00;;;;;;;16.77;12.07;;;;;;;18.56;68.11;101522.69;4931723;29;20287;-56
2021/09/15 08:10:25;;;;;;;15.95;12.18;;;;;;;18.60;67.81;101523.75;4932029;29;20031;-56
2021/09/15 08:12:51;;;;;;;25.73;13.45;;;;;;;18.78;67.75;101525.81;4930379;29;20121;-56
2021/09/15 08:15:17;;;;;;;18.10;13.07;;;;;;;18.95;67.49;101528.91;4931524;28;20032;-56
2021/09/15 08:17:43;;;;;;;17.63;13.00;;;;;;;19.06;67.03;101531.56;4931122;29;20043;-56
2021/09/15 08:20:09;;;;;;;19.08;12.50;;;;;;;19.10;66.92;101527.97;4934622;28;20053;-56
2021/09/15 08:22:35;;;;;;;17.42;12.02;;;;;;;19.12;66.64;101522.25;4928080;29;20432;-54
2021/09/15 08:25:01;;;;;;;19.70;12.20;;;;;;;19.13;66.83;101527.38;4931575;28;20035;-56
2021/09/15 08:27:26;;;;;;;17.80;12.25;;;;;;;19.15;66.46;101522.47;4931177;29;20506;-57
2021/09/15 08:29:52;;;;;;;17.20;11.38;;;;;;;19.20;66.58;101522.41;4930125;29;20265;-56
2021/09/15 08:32:17;;;;;;;18.88;11.68;;;;;;;19.21;66.67;101521.34;4931938;28;20288;-56
2021/09/15 08:34:43;;;;;;;18.05;12.48;;;;;;;19.14;66.78;101514.63;4930674;29;20127;-56
2021/09/15 08:37:08;;;;;;;19.83;12.13;;;;;;;19.04;67.26;101512.00;4931962;28;20399;-54
2021/09/15 08:39:34;;;;;;;18.65;11.88;;;;;;;18.99;67.42;101518.28;4927084;28;20039;-54
2021/09/15 08:41:59;;;;;;;19.17;11.93;;;;;;;18.98;67.67;101514.75;4936101;28;21782;-52
2021/09/15 08:44:25;;;;;;;17.02;11.65;;;;;;;18.94;67.66;101505.56;4929270;29;20466;-54
2021/09/15 08:46:56;;;;;;;17.65;12.57;;;;;;;18.93;68.08;101505.84;4931081;29;20638;-54
2021/09/15 08:49:25;;;;;;;17.95;11.88;;;;;;;18.91;68.09;101506.16;4930507;29;20035;-54
2021/09/15 08:51:51;;;;;;;20.70;13.02;;;;;;;18.88;68.20;101512.16;4932264;29;20130;-54
2021/09/15 08:54:16;;;;;;;15.73;11.77;;;;;;;18.89;68.03;101511.06;4930631;29;20117;-54
2021/09/15 08:56:42;;;;;;;19.40;13.00;;;;;;;18.93;67.68;101512.09;4930802;29;20055;-54
2021/09/15 08:59:08;;;;;;;18.40;11.95;;;;;;;18.97;68.04;101505.00;4933617;29;20038;-54
2021/09/15 09:01:34;;;;;;;17.88;11.68;;;;;;;19.05;67.66;101508.19;4932199;29;20019;-54
2021/09/15 09:03:59;;;;;;;15.27;10.88;;;;;;;19.11;67.31;101507.84;4931490;29;20455;-55
2021/09/15 09:06:29;;;;;;;15.68;11.35;;;;;;;19.06;67.69;101507.91;4931216;29;20094;-54
2021/09/15 09:08:58;;;;;;;16.20;10.30;;;;;;;19.31;67.49;101496.78;4930145;29;20039;-53
2021/09/15 09:11:25;;;;;;;21.85;11.73;;;;;;;19.57;66.96;101489.19;4932012;29;20422;-53
2021/09/15 09:13:57;;;;;;;32.92;12.15;;;;;;;19.76;66.18;101480.25;4935559;29;20030;-54
2021/09/15 09:16:37;;;;;;;19.73;11.30;;;;;;;19.87;65.84;101482.53;4931107;29;20031;-55
2021/09/15 09:19:06;;;;;;;15.57;10.52;;;;;;;19.93;65.67;101480.56;4931408;29;20039;-54
2021/09/15 09:21:36;;;;;;;15.45;10.77;;;;;;;19.98;66.03;101483.22;4931022;29;20027;-53
2021/09/15 09:24:05;;;;;;;16.92;10.50;;;;;;;19.93;65.55;101475.13;4931675;29;20034;-54
2021/09/15 09:27:02;;;;;;;22.67;11.32;;;;;;;19.83;64.82;101467.09;4932143;29;20102;-54
2021/09/15 09:29:30;;;;;;;15.88;11.15;;;;;;;19.81;66.27;101466.59;4931547;29;20023;-54
2021/09/15 09:32:01;;;;;;;15.27;11.35;;;;;;;19.78;66.07;101459.84;4931200;29;20592;-54
2021/09/15 09:34:28;;;;;;;12.98;9.88;;;;;;;19.64;66.27;101456.22;4931916;29;20389;-54
2021/09/15 09:36:58;;;;;;;15.80;10.57;;;;;;;19.65;65.64;101460.53;4931209;29;20268;-53
2021/09/15 09:39:36;;;;;;;16.92;11.15;;;;;;;19.63;65.85;101464.66;4930258;29;20032;-54
2021/09/15 09:42:03;;;;;;;23.83;11.35;;;;;;;19.71;66.07;101450.41;4931884;29;20465;-54
2021/09/15 09:44:28;;;;;;;16.30;10.50;;;;;;;19.94;65.42;101454.19;4930678;29;20396;-53
2021/09/15 09:46:54;;;;;;;13.60;10.02;;;;;;;20.21;64.69;101444.25;4932008;28;20038;-52
2021/09/15 09:49:19;;;;;;;12.15;10.55;;;;;;;20.41;64.12;101448.59;4930018;29;20023;-54
2021/09/15 09:51:45;;;;;;;14.77;11.15;;;;;;;20.51;63.53;101445.72;4931424;29;20038;-54
2021/09/15 09:54:11;;;;;;;15.63;10.60;;;;;;;20.59;63.11;101437.94;4929986;29;20034;-54
2021/09/15 09:56:38;;;;;;;18.65;10.43;;;;;;;20.57;63.41;101453.78;4930433;29;20039;-55
2021/09/15 09:59:05;;;;;;;12.82;9.88;;;;;;;20.63;63.16;101439.78;4929997;29;20379;-52
2021/09/15 10:01:35;;;;;;;13.98;10.70;;;;;;;20.56;62.84;101442.09;4931218;29;20118;-53
2021/09/15 10:04:03;;;;;;;13.15;10.40;;;;;;;20.53;63.44;101442.69;4930698;29;20924;-54
2021/09/15 10:06:28;;;;;;;13.55;10.02;;;;;;;20.68;63.48;101439.69;4931080;29;20118;-54
2021/09/15 10:08:54;;;;;;;17.08;9.98;;;;;;;20.80;62.93;101433.75;4930328;29;20118;-54
2021/09/15 10:11:21;;;;;;;14.35;10.05;;;;;;;20.95;62.85;101427.22;4931004;28;20032;-54
2021/09/15 10:13:47;;;;;;;14.00;10.30;;;;;;;21.15;61.99;101428.75;4929679;29;20023;-54
2021/09/15 10:16:14;;;;;;;16.35;9.73;;;;;;;21.38;61.44;101433.25;4930786;29;20123;-54
2021/09/15 10:18:41;;;;;;;15.90;10.40;;;;;;;21.57;60.94;101430.41;4928711;29;20032;-54
2021/09/15 10:21:07;;;;;;;12.70;9.93;;;;;;;21.69;60.33;101428.72;4930463;29;20127;-54
2021/09/15 10:23:38;;;;;;;15.60;9.85;;;;;;;21.93;59.88;101423.03;4929989;29;20023;-54
2021/09/15 10:26:26;;;;;;;13.50;10.38;;;;;;;22.07;60.87;101422.19;4931078;29;20504;-54
2021/09/15 10:29:13;;;;;;;26.20;10.23;;;;;;;22.46;58.64;101408.69;4931223;29;20526;-55
2021/09/15 10:31:49;;;;;;;13.98;9.02;;;;;;;22.91;58.24;101411.34;4934438;29;20206;-54
2021/09/15 10:34:40;;;;;;;13.75;9.25;;;;;;;23.13;56.26;101405.81;4934674;29;20490;-54
2021/09/15 10:37:11;;;;;;;13.48;9.52;;;;;;;23.40;56.61;101399.28;4917520;29;20039;-54
2021/09/15 10:40:09;;;;;;;15.25;9.57;;;;;;;23.32;56.43;101393.78;4933256;29;20035;-54
2021/09/15 10:42:52;;;;;;;12.63;9.57;;;;;;;23.27;56.48;101391.22;4934646;29;20087;-55
2021/09/15 10:45:22;;;;;;;15.40;9.57;;;;;;;23.46;56.09;101391.75;4933615;28;20033;-54
2021/09/15 10:47:54;;;;;;;14.55;9.52;;;;;;;23.63;55.98;101391.00;4935370;29;20020;-54
2021/09/15 10:50:29;;;;;;;13.15;8.65;;;;;;;23.72;55.25;101392.63;4936229;29;20124;-55
2021/09/15 10:53:06;;;;;;;13.60;9.13;;;;;;;23.80;56.02;101386.34;4933730;29;20535;-54
2021/09/15 10:55:44;;;;;;;10.80;8.55;;;;;;;24.30;54.39;101383.09;4934368;29;20035;-53
2021/09/15 10:58:43;;;;;;;10.85;8.32;;;;;;;24.37;54.13;101382.59;4938284;29;20036;-55
2021/09/15 11:01:11;;;;;;;11.00;8.10;;;;;;;24.39;54.10;101377.59;4913075;29;20051;-53
2021/09/15 11:03:53;;;;;;;11.70;9.20;;;;;;;24.32;54.04;101364.41;4932604;29;20030;-53
2021/09/15 11:06:21;;;;;;;11.48;8.65;;;;;;;24.38;54.10;101362.28;4934195;29;20110;-54
2021/09/15 11:08:49;;;;;;;12.38;8.52;;;;;;;24.43;53.74;101361.34;4933752;29;20031;-55
2021/09/15 11:11:20;;;;;;;11.70;8.50;;;;;;;24.47;54.00;101359.53;4934238;29;20024;-55
2021/09/15 11:13:47;;;;;;;13.25;9.02;;;;;;;24.43;54.23;101364.88;4932994;29;20058;-52
2021/09/15 11:16:41;;;;;;;14.65;8.32;;;;;;;24.52;53.56;101360.16;4933490;29;20213;-52
2021/09/15 11:19:11;;;;;;;16.90;8.82;;;;;;;24.77;53.41;101352.97;4934612;29;20493;-55